createdAt,value
2022-12-22T00:00:37.137Z,1.80
2022-12-22T00:01:57.046Z,1.70
2022-12-22T00:03:17.375Z,1.60
2022-12-22T00:04:37.700Z,1.63
2022-12-22T00:05:57.747Z,1.50
2022-12-22T00:07:17.711Z,1.80
2022-12-22T00:08:37.638Z,1.40
2022-12-22T00:09:57.480Z,2.30
2022-12-22T00:11:18.138Z,1.70
2022-12-22T00:12:38.473Z,1.60
2022-12-22T00:13:59.339Z,2.10
2022-12-22T00:15:19.444Z,1.60
2022-12-22T00:16:39.490Z,1.80
2022-12-22T00:17:59.966Z,1.67
2022-12-22T00:19:20.305Z,1.80
2022-12-22T00:20:40.104Z,1.77
2022-12-22T00:21:59.898Z,1.80
2022-12-22T00:23:19.755Z,1.60
2022-12-22T00:24:39.640Z,1.80
2022-12-22T00:25:59.726Z,1.60
2022-12-22T00:27:19.657Z,1.80
2022-12-22T00:28:39.687Z,1.60
2022-12-22T00:30:00.645Z,1.80
2022-12-22T00:31:20.591Z,1.53
2022-12-22T00:32:40.960Z,1.67
2022-12-22T00:34:00.945Z,2.47
2022-12-22T00:35:20.737Z,1.80
2022-12-22T00:36:41.734Z,1.80
2022-12-22T00:38:01.634Z,1.93
2022-12-22T00:39:21.685Z,1.93
2022-12-22T00:40:44.818Z,2.00
2022-12-22T00:42:04.865Z,1.80
2022-12-22T00:43:24.861Z,1.80
2022-12-22T00:44:44.785Z,2.03
2022-12-22T00:46:04.688Z,1.60
2022-12-22T00:47:28.382Z,1.80
2022-12-22T00:48:48.258Z,2.00
2022-12-22T00:50:08.530Z,1.97
2022-12-22T00:51:29.806Z,1.60
2022-12-22T00:52:49.979Z,1.90
2022-12-22T00:54:10.180Z,2.10
2022-12-22T00:55:34.456Z,1.83
2022-12-22T00:56:54.478Z,2.17
2022-12-22T00:58:14.308Z,1.90
2022-12-22T00:59:34.176Z,1.90
2022-12-22T01:00:54.065Z,1.87
2022-12-22T01:02:14.163Z,1.87
2022-12-22T01:03:34.581Z,1.80
2022-12-22T01:04:54.893Z,1.83
2022-12-22T01:06:17.303Z,2.13
2022-12-22T01:07:37.760Z,1.90
2022-12-22T01:08:57.698Z,1.73
2022-12-22T01:10:18.205Z,2.00
2022-12-22T01:11:38.844Z,1.80
2022-12-22T01:12:59.638Z,1.83
2022-12-22T01:14:19.836Z,2.00
2022-12-22T01:15:40.068Z,1.63
2022-12-22T01:16:59.759Z,1.70
2022-12-22T01:18:19.763Z,1.90
2022-12-22T01:19:39.970Z,1.80
2022-12-22T01:20:59.836Z,1.57
2022-12-22T01:22:19.840Z,1.50
2022-12-22T01:23:39.965Z,1.80
2022-12-22T01:24:59.811Z,1.73
2022-12-22T01:26:19.834Z,1.73
2022-12-22T01:27:39.785Z,2.03
2022-12-22T01:28:59.599Z,2.27
2022-12-22T01:30:19.429Z,2.30
2022-12-22T01:31:46.206Z,2.07
2022-12-22T01:33:05.979Z,1.80
2022-12-22T01:34:26.797Z,2.27
2022-12-22T01:35:48.182Z,1.83
2022-12-22T01:37:08.060Z,1.83
2022-12-22T01:38:27.896Z,1.90
2022-12-22T01:39:47.864Z,2.10
2022-12-22T01:41:08.055Z,2.10
2022-12-22T01:42:29.954Z,1.97
2022-12-22T01:43:50.679Z,1.90
2022-12-22T01:45:10.672Z,1.90
2022-12-22T01:46:37.807Z,1.90
2022-12-22T01:47:57.974Z,2.03
2022-12-22T01:49:17.795Z,2.00
2022-12-22T01:50:39.799Z,1.80
2022-12-22T01:51:59.709Z,1.87
2022-12-22T01:53:20.996Z,1.73
2022-12-22T01:54:41.110Z,1.73
2022-12-22T01:56:01.355Z,1.90
2022-12-22T01:57:21.642Z,1.90
2022-12-22T01:58:52.430Z,1.70
2022-12-22T02:00:12.798Z,2.10
2022-12-22T02:01:34.063Z,1.60
2022-12-22T02:02:54.600Z,1.80
2022-12-22T02:04:15.403Z,1.90
2022-12-22T02:05:35.570Z,1.97
2022-12-22T02:07:00.408Z,2.33
2022-12-22T02:08:31.159Z,1.73
2022-12-22T02:10:11.935Z,2.00
2022-12-22T02:11:38.766Z,2.00
2022-12-22T02:13:03.768Z,2.00
2022-12-22T02:14:42.390Z,1.70
2022-12-22T02:16:07.169Z,1.97
2022-12-22T02:17:35.724Z,1.93
2022-12-22T02:18:58.810Z,2.00
2022-12-22T02:20:21.737Z,1.90
2022-12-22T02:21:43.740Z,1.83
2022-12-22T02:23:12.977Z,1.93
2022-12-22T02:24:49.278Z,1.67
2022-12-22T02:26:14.535Z,1.80
2022-12-22T02:27:34.831Z,2.07
2022-12-22T02:28:54.625Z,1.90
2022-12-22T02:30:16.960Z,2.20
2022-12-22T02:31:36.909Z,2.00
2022-12-22T02:33:05.234Z,2.30
2022-12-22T02:34:32.754Z,1.80
2022-12-22T02:36:13.134Z,2.00
2022-12-22T02:37:43.325Z,2.03
2022-12-22T02:39:03.326Z,1.73
2022-12-22T02:40:29.336Z,1.97
2022-12-22T02:41:52.069Z,1.80
2022-12-22T02:43:30.923Z,2.00
2022-12-22T02:44:56.690Z,1.73
2022-12-22T02:46:16.396Z,1.87
2022-12-22T02:47:39.793Z,1.90
2022-12-22T02:49:03.669Z,1.90
2022-12-22T02:50:45.673Z,1.90
2022-12-22T02:52:09.108Z,2.00
2022-12-22T02:53:30.535Z,1.80
2022-12-22T02:54:50.950Z,1.87
2022-12-22T02:56:23.479Z,1.90
2022-12-22T02:57:43.527Z,2.00
2022-12-22T02:59:03.164Z,1.70
2022-12-22T03:00:23.957Z,1.63
2022-12-22T03:01:44.418Z,1.60
2022-12-22T03:03:04.856Z,1.60
2022-12-22T03:04:25.171Z,1.90
2022-12-22T03:05:45.009Z,1.60
2022-12-22T03:07:04.812Z,1.80
2022-12-22T03:08:24.698Z,1.60
2022-12-22T03:09:44.621Z,1.63
2022-12-22T03:11:04.555Z,1.60
2022-12-22T03:12:24.420Z,2.03
2022-12-22T03:13:44.379Z,1.57
2022-12-22T03:15:04.172Z,1.70
2022-12-22T03:16:24.040Z,1.47
2022-12-22T03:17:44.223Z,1.53
2022-12-22T03:19:04.052Z,1.70
2022-12-22T03:20:24.183Z,1.47
2022-12-22T03:21:43.966Z,1.80
2022-12-22T03:23:03.743Z,1.37
2022-12-22T03:24:23.590Z,1.50
2022-12-22T03:25:43.626Z,1.53
2022-12-22T03:26:44.983Z,1.80
2022-12-22T03:27:46.295Z,1.70
2022-12-22T03:28:47.693Z,1.30
2022-12-22T03:29:48.965Z,1.33
2022-12-22T03:30:55.154Z,1.93
2022-12-22T03:31:56.518Z,1.30
2022-12-22T03:32:59.334Z,1.73
2022-12-22T03:34:00.622Z,1.60
2022-12-22T03:35:01.959Z,1.50
2022-12-22T03:36:03.773Z,1.40
2022-12-22T03:37:05.118Z,1.50
2022-12-22T03:38:06.457Z,1.47
2022-12-22T03:39:07.826Z,1.53
2022-12-22T03:40:09.303Z,1.60
2022-12-22T03:41:30.658Z,1.47
2022-12-22T03:42:51.147Z,1.40
2022-12-22T03:44:11.115Z,1.33
2022-12-22T03:45:31.077Z,1.40
2022-12-22T03:46:32.510Z,1.70
2022-12-22T03:47:33.990Z,1.53
2022-12-22T03:48:35.321Z,1.53
2022-12-22T03:49:36.663Z,1.37
2022-12-22T03:50:37.980Z,1.67
2022-12-22T03:51:42.108Z,1.40
2022-12-22T03:52:43.405Z,1.57
2022-12-22T03:53:44.717Z,1.40
2022-12-22T03:54:46.066Z,1.33
2022-12-22T03:55:47.351Z,1.57
2022-12-22T03:56:49.095Z,1.50
2022-12-22T03:57:50.427Z,1.53
2022-12-22T03:58:51.685Z,1.50
2022-12-22T03:59:52.985Z,1.20
2022-12-22T04:01:04.514Z,1.40
2022-12-22T04:02:06.056Z,1.37
2022-12-22T04:03:07.657Z,1.60
2022-12-22T04:04:09.719Z,1.70
2022-12-22T04:05:11.721Z,1.97
2022-12-22T04:06:13.116Z,1.40
2022-12-22T04:07:17.246Z,1.83
2022-12-22T04:08:18.552Z,1.70
2022-12-22T04:09:20.105Z,1.90
2022-12-22T04:10:39.950Z,1.50
2022-12-22T04:11:59.919Z,1.50
2022-12-22T04:13:01.301Z,1.40
2022-12-22T04:14:03.157Z,1.50
2022-12-22T04:15:04.691Z,1.80
2022-12-22T04:16:06.187Z,1.40
2022-12-22T04:17:07.567Z,1.57
2022-12-22T04:18:08.970Z,1.40
2022-12-22T04:19:10.515Z,1.37
2022-12-22T04:20:12.015Z,1.60
2022-12-22T04:21:13.318Z,1.50
2022-12-22T04:22:15.257Z,1.43
2022-12-22T04:23:16.608Z,1.33
2022-12-22T04:24:18.365Z,1.50
2022-12-22T04:25:19.699Z,1.93
2022-12-22T04:26:22.124Z,1.37
2022-12-22T04:27:23.472Z,1.93
2022-12-22T04:28:24.805Z,1.53
2022-12-22T04:29:26.163Z,1.40
2022-12-22T04:30:27.479Z,1.70
2022-12-22T04:31:28.912Z,1.40
2022-12-22T04:32:30.230Z,1.33
2022-12-22T04:33:31.617Z,1.30
2022-12-22T04:34:33.023Z,1.40
2022-12-22T04:35:34.397Z,1.57
2022-12-22T04:36:35.748Z,1.20
2022-12-22T04:37:37.297Z,1.20
2022-12-22T04:38:38.618Z,1.57
2022-12-22T04:39:39.932Z,1.57
2022-12-22T04:40:41.286Z,1.37
2022-12-22T04:41:42.980Z,1.50
2022-12-22T04:42:44.335Z,1.50
2022-12-22T04:43:45.711Z,1.50
2022-12-22T04:44:47.085Z,1.33
2022-12-22T04:45:52.055Z,1.20
2022-12-22T04:46:53.363Z,1.27
2022-12-22T04:47:54.656Z,1.20
2022-12-22T04:48:59.968Z,1.30
2022-12-22T04:50:01.673Z,1.20
2022-12-22T04:51:03.062Z,1.20
2022-12-22T04:52:04.455Z,1.27
2022-12-22T04:53:08.505Z,1.17
2022-12-22T04:54:11.160Z,1.30
2022-12-22T04:55:13.304Z,1.30
2022-12-22T04:56:14.995Z,1.47
2022-12-22T04:57:16.356Z,1.23
2022-12-22T04:58:17.731Z,1.43
2022-12-22T04:59:19.022Z,1.30
2022-12-22T05:00:26.494Z,1.20
2022-12-22T05:01:27.959Z,1.33
2022-12-22T05:02:39.698Z,1.30
2022-12-22T05:03:41.274Z,1.30
2022-12-22T05:04:42.639Z,1.47
2022-12-22T05:05:44.053Z,1.50
2022-12-22T05:06:45.408Z,1.50
2022-12-22T05:07:47.104Z,1.30
2022-12-22T05:08:48.690Z,1.50
2022-12-22T05:09:50.080Z,1.37
2022-12-22T05:10:51.338Z,1.60
2022-12-22T05:11:52.697Z,1.20
2022-12-22T05:12:57.091Z,1.37
2022-12-22T05:14:03.515Z,1.30
2022-12-22T05:15:08.549Z,1.43
2022-12-22T05:16:11.587Z,1.47
2022-12-22T05:17:13.566Z,1.60
2022-12-22T05:18:15.045Z,1.40
2022-12-22T05:19:16.699Z,1.10
2022-12-22T05:20:18.178Z,1.30
2022-12-22T05:21:20.993Z,1.50
2022-12-22T05:22:22.377Z,1.40
2022-12-22T05:23:23.763Z,1.30
2022-12-22T05:24:25.409Z,1.67
2022-12-22T05:25:32.918Z,1.60
2022-12-22T05:26:36.242Z,1.27
2022-12-22T05:27:37.744Z,1.30
2022-12-22T05:28:39.108Z,1.40
2022-12-22T05:29:40.719Z,1.43
2022-12-22T05:30:42.255Z,1.43
2022-12-22T05:31:47.339Z,1.40
2022-12-22T05:32:49.331Z,1.50
2022-12-22T05:33:50.854Z,1.70
2022-12-22T05:34:52.278Z,1.70
2022-12-22T05:35:53.621Z,1.57
2022-12-22T05:36:55.033Z,1.67
2022-12-22T05:37:56.526Z,1.60
2022-12-22T05:39:01.079Z,1.50
2022-12-22T05:40:03.690Z,1.80
2022-12-22T05:41:05.237Z,1.50
2022-12-22T05:42:06.614Z,1.10
2022-12-22T05:43:08.041Z,1.30
2022-12-22T05:44:09.640Z,1.50
2022-12-22T05:45:18.693Z,1.47
2022-12-22T05:46:20.235Z,2.00
2022-12-22T05:47:21.691Z,1.73
2022-12-22T05:48:29.551Z,1.47
2022-12-22T05:49:32.316Z,1.57
2022-12-22T05:50:33.736Z,1.27
2022-12-22T05:51:40.677Z,1.37
2022-12-22T05:52:42.139Z,1.40
2022-12-22T05:53:43.484Z,1.37
2022-12-22T05:54:44.836Z,1.37
2022-12-22T05:55:46.223Z,1.50
2022-12-22T05:56:47.559Z,1.30
2022-12-22T05:57:48.972Z,1.70
2022-12-22T05:58:50.355Z,1.47
2022-12-22T05:59:51.800Z,1.77
2022-12-22T06:00:55.996Z,1.73
2022-12-22T06:01:57.325Z,1.40
2022-12-22T06:02:59.224Z,1.37
2022-12-22T06:04:01.119Z,1.20
2022-12-22T06:05:02.574Z,1.67
2022-12-22T06:06:04.055Z,1.30
2022-12-22T06:07:05.555Z,1.60
2022-12-22T06:08:07.309Z,1.30
2022-12-22T06:09:10.907Z,1.60
2022-12-22T06:10:13.322Z,1.50
2022-12-22T06:11:18.198Z,1.23
2022-12-22T06:12:19.976Z,1.70
2022-12-22T06:13:21.661Z,1.33
2022-12-22T06:14:35.060Z,2.30
2022-12-22T06:15:36.611Z,1.37
2022-12-22T06:16:39.446Z,1.33
2022-12-22T06:17:44.653Z,1.70
2022-12-22T06:18:46.431Z,4.17
2022-12-22T06:19:47.791Z,1.60
2022-12-22T06:20:51.460Z,1.73
2022-12-22T06:21:54.789Z,1.27
2022-12-22T06:22:59.752Z,1.60
2022-12-22T06:24:01.823Z,1.40
2022-12-22T06:25:03.361Z,1.87
2022-12-22T06:26:04.806Z,1.63
2022-12-22T06:27:06.248Z,1.43
2022-12-22T06:28:07.615Z,1.50
2022-12-22T06:29:11.795Z,1.37
2022-12-22T06:30:13.384Z,1.90
2022-12-22T06:31:14.767Z,1.77
2022-12-22T06:32:21.778Z,1.30
2022-12-22T06:33:24.034Z,1.57
2022-12-22T06:34:25.481Z,1.60
2022-12-22T06:35:32.837Z,1.53
2022-12-22T06:36:36.481Z,1.80
2022-12-22T06:37:37.896Z,1.50
2022-12-22T06:38:41.912Z,1.60
2022-12-22T06:39:43.280Z,1.90
2022-12-22T06:40:47.194Z,1.20
2022-12-22T06:42:12.920Z,1.93
2022-12-22T06:43:16.988Z,1.60
2022-12-22T06:44:18.352Z,1.53
2022-12-22T06:45:19.680Z,1.53
2022-12-22T06:46:21.073Z,1.83
2022-12-22T06:47:25.295Z,1.43
2022-12-22T06:48:27.986Z,1.70
2022-12-22T06:49:32.431Z,1.80
2022-12-22T06:50:37.540Z,1.53
2022-12-22T06:51:41.136Z,1.87
2022-12-22T06:52:43.319Z,1.60
2022-12-22T06:53:44.903Z,2.00
2022-12-22T06:54:46.227Z,1.80
2022-12-22T06:55:47.614Z,1.67
2022-12-22T06:56:49.015Z,1.70
2022-12-22T06:57:50.458Z,2.23
2022-12-22T06:58:52.059Z,2.13
2022-12-22T06:59:57.444Z,1.60
2022-12-22T07:01:02.079Z,1.83
2022-12-22T07:02:03.737Z,1.70
2022-12-22T07:03:05.595Z,1.40
2022-12-22T07:04:11.686Z,1.83
2022-12-22T07:05:13.223Z,1.60
2022-12-22T07:06:14.563Z,2.00
2022-12-22T07:07:15.957Z,1.50
2022-12-22T07:08:19.694Z,1.70
2022-12-22T07:09:21.185Z,1.87
2022-12-22T07:10:42.629Z,1.47
2022-12-22T07:11:46.839Z,1.90
2022-12-22T07:12:51.063Z,1.90
2022-12-22T07:13:52.620Z,2.27
2022-12-22T07:14:56.521Z,1.50
2022-12-22T07:16:01.733Z,1.50
2022-12-22T07:17:03.507Z,1.50
2022-12-22T07:18:04.897Z,1.63
2022-12-22T07:19:06.228Z,1.67
2022-12-22T07:20:08.223Z,2.50
2022-12-22T07:21:11.437Z,1.70
2022-12-22T07:22:12.734Z,1.60
2022-12-22T07:23:14.054Z,1.50
2022-12-22T07:24:23.151Z,2.30
2022-12-22T07:25:24.467Z,1.57
2022-12-22T07:26:25.761Z,1.53
2022-12-22T07:27:27.237Z,1.83
2022-12-22T07:28:28.845Z,1.77
2022-12-22T07:29:30.147Z,2.57
2022-12-22T07:30:33.955Z,1.90
2022-12-22T07:31:35.370Z,1.70
2022-12-22T07:32:39.285Z,1.60
2022-12-22T07:33:40.642Z,1.80
2022-12-22T07:34:41.971Z,1.80
2022-12-22T07:35:47.141Z,1.70
2022-12-22T07:36:51.417Z,1.77
2022-12-22T07:37:52.743Z,1.60
2022-12-22T07:38:54.064Z,1.80
2022-12-22T07:39:55.432Z,1.87
2022-12-22T07:41:02.902Z,1.97
2022-12-22T07:42:25.219Z,1.87
2022-12-22T07:43:26.553Z,2.00
2022-12-22T07:44:28.964Z,2.10
2022-12-22T07:45:34.022Z,1.80
2022-12-22T07:46:36.504Z,1.70
2022-12-22T07:47:45.878Z,1.90
2022-12-22T07:49:06.500Z,2.00
2022-12-22T07:50:28.421Z,1.70
2022-12-22T07:51:32.227Z,1.70
2022-12-22T07:52:33.502Z,2.13
2022-12-22T07:53:35.185Z,1.70
2022-12-22T07:54:41.637Z,2.07
2022-12-22T07:55:43.647Z,2.33
2022-12-22T07:56:45.625Z,1.70
2022-12-22T07:57:46.962Z,2.10
2022-12-22T07:58:48.269Z,2.17
2022-12-22T07:59:49.559Z,1.93
2022-12-22T08:00:50.900Z,1.70
2022-12-22T08:01:52.368Z,2.17
2022-12-22T08:02:55.701Z,1.80
2022-12-22T08:03:58.128Z,2.00
2022-12-22T08:04:59.476Z,2.23
2022-12-22T08:06:03.472Z,1.73
2022-12-22T08:07:04.767Z,2.57
2022-12-22T08:08:06.102Z,2.07
2022-12-22T08:09:07.760Z,2.03
2022-12-22T08:10:09.918Z,1.73
2022-12-22T08:11:11.252Z,2.27
2022-12-22T08:12:12.592Z,1.97
2022-12-22T08:13:14.020Z,2.17
2022-12-22T08:14:15.358Z,1.90
2022-12-22T08:15:16.738Z,2.40
2022-12-22T08:16:19.463Z,2.40
2022-12-22T08:17:20.775Z,2.67
2022-12-22T08:18:22.194Z,2.30
2022-12-22T08:19:23.523Z,2.30
2022-12-22T08:20:24.958Z,2.70
2022-12-22T08:21:26.415Z,2.47
2022-12-22T08:22:29.959Z,2.73
2022-12-22T08:23:31.539Z,1.77
2022-12-22T08:24:32.937Z,2.27
2022-12-22T08:25:34.623Z,2.33
2022-12-22T08:26:41.659Z,2.43
2022-12-22T08:27:47.355Z,2.37
2022-12-22T08:29:03.473Z,2.20
2022-12-22T08:30:05.025Z,2.43
2022-12-22T08:31:06.899Z,2.67
2022-12-22T08:32:08.359Z,2.83
2022-12-22T08:33:09.995Z,2.73
2022-12-22T08:34:14.044Z,2.77
2022-12-22T08:35:15.544Z,2.70
2022-12-22T08:36:17.024Z,3.00
2022-12-22T08:37:20.242Z,2.73
2022-12-22T08:38:21.899Z,3.10
2022-12-22T08:39:24.739Z,3.37
2022-12-22T08:40:28.277Z,2.90
2022-12-22T08:41:48.441Z,2.83
2022-12-22T08:42:51.458Z,3.00
2022-12-22T08:43:52.817Z,2.70
2022-12-22T08:44:54.255Z,2.37
2022-12-22T08:45:55.543Z,2.73
2022-12-22T08:46:57.825Z,4.20
2022-12-22T08:47:59.306Z,2.90
2022-12-22T08:49:00.733Z,2.80
2022-12-22T08:50:02.132Z,3.03
2022-12-22T08:51:03.582Z,2.73
2022-12-22T08:52:04.911Z,2.70
2022-12-22T08:53:14.519Z,2.67
2022-12-22T08:54:28.616Z,2.27
2022-12-22T08:55:29.938Z,2.70
2022-12-22T08:56:31.507Z,3.23
2022-12-22T08:57:32.885Z,3.57
2022-12-22T08:58:34.188Z,2.67
2022-12-22T08:59:35.644Z,3.67
2022-12-22T09:00:36.974Z,3.20
2022-12-22T09:01:39.590Z,2.77
2022-12-22T09:02:41.189Z,2.80
2022-12-22T09:03:42.605Z,3.43
2022-12-22T09:04:43.927Z,2.80
2022-12-22T09:05:45.223Z,2.53
2022-12-22T09:06:46.526Z,2.77
2022-12-22T09:07:48.510Z,2.20
2022-12-22T09:08:53.419Z,2.67
2022-12-22T09:09:54.816Z,2.40
2022-12-22T09:10:56.223Z,2.60
2022-12-22T09:11:57.558Z,2.30
2022-12-22T09:12:58.902Z,2.60
2022-12-22T09:14:01.233Z,1.97
2022-12-22T09:15:02.595Z,2.10
2022-12-22T09:16:07.193Z,2.67
2022-12-22T09:17:08.655Z,2.50
2022-12-22T09:18:09.984Z,2.27
2022-12-22T09:19:11.379Z,2.50
2022-12-22T09:20:14.085Z,2.53
2022-12-22T09:21:15.903Z,2.37
2022-12-22T09:22:21.759Z,2.80
2022-12-22T09:23:26.697Z,2.60
2022-12-22T09:24:28.041Z,2.23
2022-12-22T09:25:29.390Z,1.87
2022-12-22T09:26:30.878Z,2.00
2022-12-22T09:27:32.629Z,2.37
2022-12-22T09:28:34.052Z,1.80
2022-12-22T09:29:36.699Z,2.30
2022-12-22T09:30:38.081Z,2.37
2022-12-22T09:31:41.603Z,2.53
2022-12-22T09:32:43.061Z,2.60
2022-12-22T09:33:44.415Z,2.33
2022-12-22T09:34:45.704Z,2.23
2022-12-22T09:35:47.023Z,2.97
2022-12-22T09:36:48.376Z,1.90
2022-12-22T09:37:49.827Z,2.10
2022-12-22T09:38:51.350Z,2.67
2022-12-22T09:39:52.693Z,2.93
2022-12-22T09:40:56.422Z,1.80
2022-12-22T09:41:58.330Z,2.30
2022-12-22T09:42:59.707Z,2.20
2022-12-22T09:44:04.966Z,2.20
2022-12-22T09:45:16.832Z,2.07
2022-12-22T09:46:21.440Z,2.43
2022-12-22T09:47:26.424Z,1.97
2022-12-22T09:48:33.513Z,2.23
2022-12-22T09:49:34.871Z,1.83
2022-12-22T09:50:37.609Z,2.03
2022-12-22T09:51:40.523Z,1.80
2022-12-22T09:52:48.984Z,1.83
2022-12-22T09:53:55.173Z,1.93
2022-12-22T09:54:56.860Z,2.13
2022-12-22T09:55:58.261Z,1.77
2022-12-22T09:56:59.693Z,2.00
2022-12-22T09:58:01.101Z,2.73
2022-12-22T09:59:02.521Z,1.70
2022-12-22T10:00:17.785Z,1.70
2022-12-22T10:01:22.176Z,1.93
2022-12-22T10:02:28.433Z,2.20
2022-12-22T10:03:43.194Z,1.77
2022-12-22T10:05:03.425Z,1.93
2022-12-22T10:06:20.161Z,1.83
2022-12-22T10:07:30.451Z,1.50
2022-12-22T10:08:36.372Z,1.70
2022-12-22T10:09:52.908Z,1.97
2022-12-22T10:10:54.867Z,2.10
2022-12-22T10:11:57.303Z,1.70
2022-12-22T10:12:59.914Z,2.00
2022-12-22T10:14:01.250Z,1.70
2022-12-22T10:15:02.698Z,2.07
2022-12-22T10:16:16.456Z,1.83
2022-12-22T10:17:17.817Z,1.47
2022-12-22T10:18:20.475Z,2.03
2022-12-22T10:19:21.808Z,1.30
2022-12-22T10:20:25.345Z,1.20
2022-12-22T10:21:27.093Z,1.40
2022-12-22T10:22:30.303Z,1.10
2022-12-22T10:23:34.451Z,1.33
2022-12-22T10:24:35.838Z,1.63
2022-12-22T10:26:17.134Z,1.60
2022-12-22T10:27:00.550Z,1.07
2022-12-22T10:28:04.063Z,1.20
2022-12-22T10:29:06.522Z,1.17
2022-12-22T10:30:18.491Z,1.30
2022-12-22T10:31:21.832Z,1.07
2022-12-22T10:32:23.376Z,1.60
2022-12-22T10:33:33.314Z,1.40
2022-12-22T10:34:34.697Z,1.70
2022-12-22T10:35:42.072Z,1.30
2022-12-22T10:36:48.280Z,1.40
2022-12-22T10:37:49.650Z,1.90
2022-12-22T10:39:11.407Z,1.20
2022-12-22T10:40:22.647Z,1.03
2022-12-22T10:41:36.764Z,1.37
2022-12-22T10:42:42.088Z,1.13
2022-12-22T10:43:58.136Z,1.20
2022-12-22T10:45:07.372Z,1.10
2022-12-22T10:46:09.150Z,1.20
2022-12-22T10:47:19.738Z,0.90
2022-12-22T10:48:31.580Z,1.10
2022-12-22T10:49:45.987Z,0.90
2022-12-22T10:50:48.647Z,0.80
2022-12-22T10:51:56.083Z,0.57
2022-12-22T10:52:59.150Z,0.87
2022-12-22T10:54:06.527Z,0.80
2022-12-22T10:55:22.584Z,0.60
2022-12-22T10:56:30.919Z,1.00
2022-12-22T10:57:33.058Z,1.00
2022-12-22T10:58:49.647Z,0.80
2022-12-22T10:59:59.640Z,0.63
2022-12-22T11:01:05.226Z,1.10
2022-12-22T11:02:28.436Z,1.00
2022-12-22T11:03:31.288Z,1.00
2022-12-22T11:04:32.822Z,0.80
2022-12-22T11:05:34.223Z,0.97
2022-12-22T11:06:35.586Z,0.70
2022-12-22T11:07:41.234Z,0.70
2022-12-22T11:08:49.156Z,0.90
2022-12-22T11:09:52.503Z,0.87
2022-12-22T11:11:00.916Z,0.90
2022-12-22T11:12:21.051Z,0.90
2022-12-22T11:13:39.093Z,1.00
2022-12-22T11:14:49.351Z,1.13
2022-12-22T11:15:58.717Z,0.70
2022-12-22T11:17:08.752Z,0.80
2022-12-22T11:18:16.118Z,1.10
2022-12-22T11:19:36.472Z,0.80
2022-12-22T11:20:47.172Z,0.80
2022-12-22T11:21:51.083Z,0.60
2022-12-22T11:23:30.551Z,0.80
2022-12-22T11:24:34.478Z,0.60
2022-12-22T11:25:38.916Z,0.70
2022-12-22T11:26:58.290Z,0.90
2022-12-22T11:28:02.856Z,0.67
2022-12-22T11:29:16.368Z,0.50
2022-12-22T11:30:24.008Z,0.70
2022-12-22T11:31:44.313Z,0.70
2022-12-22T11:33:04.657Z,0.63
2022-12-22T11:34:20.854Z,0.70
2022-12-22T11:35:28.389Z,0.60
2022-12-22T11:36:30.077Z,0.67
2022-12-22T11:37:31.434Z,0.70
2022-12-22T11:38:45.719Z,0.70
2022-12-22T11:39:59.606Z,0.70
2022-12-22T11:41:15.854Z,0.90
2022-12-22T11:42:37.447Z,0.87
2022-12-22T11:44:05.653Z,0.70
2022-12-22T11:45:25.711Z,0.57
2022-12-22T11:46:38.329Z,0.53
2022-12-22T11:47:59.388Z,0.70
2022-12-22T11:49:06.930Z,0.60
2022-12-22T11:50:59.083Z,0.60
2022-12-22T11:51:38.263Z,0.70
2022-12-22T11:52:56.987Z,0.60
2022-12-22T11:54:11.628Z,0.63
2022-12-22T11:55:16.488Z,0.43
2022-12-22T11:56:20.881Z,0.90
2022-12-22T11:57:41.020Z,0.73
2022-12-22T11:59:01.173Z,0.93
2022-12-22T12:00:07.779Z,0.60
2022-12-22T12:01:26.232Z,0.80
2022-12-22T12:02:54.263Z,0.90
2022-12-22T12:04:01.746Z,1.00
2022-12-22T12:05:21.907Z,0.80
2022-12-22T12:06:28.317Z,0.70
2022-12-22T12:07:31.879Z,0.60
2022-12-22T12:08:45.435Z,0.70
2022-12-22T12:09:46.701Z,0.60
2022-12-22T12:10:50.665Z,0.90
2022-12-22T12:12:18.409Z,0.70
2022-12-22T12:13:26.606Z,1.00
2022-12-22T12:14:31.465Z,1.20
2022-12-22T12:15:38.940Z,0.70
2022-12-22T12:16:52.521Z,0.70
2022-12-22T12:18:07.183Z,0.87
2022-12-22T12:19:28.722Z,1.33
2022-12-22T12:20:48.263Z,1.10
2022-12-22T12:21:51.916Z,0.70
2022-12-22T12:23:11.832Z,0.70
2022-12-22T12:24:16.393Z,0.73
2022-12-22T12:25:36.470Z,0.50
2022-12-22T12:26:37.781Z,0.60
2022-12-22T12:27:49.755Z,0.60
2022-12-22T12:28:51.071Z,0.70
2022-12-22T12:30:36.125Z,0.80
2022-12-22T12:31:28.625Z,0.77
2022-12-22T12:32:40.524Z,0.80
2022-12-22T12:33:47.640Z,0.70
2022-12-22T12:34:50.704Z,0.60
2022-12-22T12:35:56.770Z,0.70
2022-12-22T12:37:13.751Z,0.50
2022-12-22T12:39:05.806Z,0.60
2022-12-22T12:39:47.270Z,0.60
2022-12-22T12:41:11.980Z,0.47
2022-12-22T12:42:21.688Z,0.60
2022-12-22T12:43:24.048Z,0.50
2022-12-22T12:44:27.587Z,0.60
2022-12-22T12:45:31.900Z,0.57
2022-12-22T12:46:52.346Z,0.70
2022-12-22T12:47:53.738Z,0.50
2022-12-22T12:48:56.339Z,0.40
2022-12-22T12:49:58.607Z,0.40
2022-12-22T12:51:00.038Z,0.50
2022-12-22T12:52:01.525Z,0.50
2022-12-22T12:53:06.996Z,0.57
2022-12-22T12:54:27.125Z,0.50
2022-12-22T12:55:33.480Z,0.50
2022-12-22T12:56:53.991Z,0.50
2022-12-22T12:57:55.877Z,0.40
2022-12-22T12:58:58.240Z,0.50
2022-12-22T13:00:00.131Z,0.30
2022-12-22T13:01:02.492Z,0.50
2022-12-22T13:02:04.109Z,0.40
2022-12-22T13:03:05.716Z,0.60
2022-12-22T13:04:08.757Z,0.30
2022-12-22T13:05:13.508Z,0.50
2022-12-22T13:06:33.453Z,0.30
2022-12-22T13:07:53.710Z,0.40
2022-12-22T13:09:39.749Z,0.40
2022-12-22T13:10:25.988Z,0.50
2022-12-22T13:12:10.518Z,0.30
2022-12-22T13:12:53.813Z,0.40
2022-12-22T13:13:56.231Z,0.50
2022-12-22T13:14:58.340Z,0.30
2022-12-22T13:16:02.627Z,0.50
2022-12-22T13:17:22.783Z,0.33
2022-12-22T13:18:24.133Z,0.50
2022-12-22T13:19:26.815Z,0.40
2022-12-22T13:20:30.836Z,0.37
2022-12-22T13:21:54.935Z,0.30
2022-12-22T13:22:57.667Z,0.40
2022-12-22T13:24:24.199Z,0.47
2022-12-22T13:25:27.053Z,0.40
2022-12-22T13:26:33.041Z,0.50
2022-12-22T13:27:36.383Z,0.60
2022-12-22T13:28:39.340Z,0.50
2022-12-22T13:29:43.742Z,0.40
2022-12-22T13:30:49.154Z,0.70
2022-12-22T13:31:50.686Z,0.40
2022-12-22T13:32:52.904Z,0.47
2022-12-22T13:34:05.248Z,0.60
2022-12-22T13:35:31.525Z,1.80
2022-12-22T13:36:33.785Z,1.73
2022-12-22T13:37:40.173Z,1.20
2022-12-22T13:38:41.480Z,1.20
2022-12-22T13:39:42.940Z,1.10
2022-12-22T13:40:44.412Z,1.30
2022-12-22T13:41:48.248Z,1.10
2022-12-22T13:42:54.053Z,1.10
2022-12-22T13:44:04.017Z,1.20
2022-12-22T13:45:06.193Z,1.50
2022-12-22T13:46:08.884Z,1.70
2022-12-22T13:47:14.488Z,1.60
2022-12-22T13:48:24.278Z,1.10
2022-12-22T13:49:51.508Z,1.00
2022-12-22T13:50:52.189Z,1.00
2022-12-22T13:51:54.291Z,1.10
2022-12-22T13:52:57.344Z,1.27
2022-12-22T13:54:10.996Z,1.10
2022-12-22T13:55:15.939Z,1.17
2022-12-22T13:56:19.790Z,1.30
2022-12-22T13:57:21.893Z,1.13
2022-12-22T13:58:40.472Z,1.00
2022-12-22T13:59:45.643Z,1.10
2022-12-22T14:00:59.952Z,1.20
2022-12-22T14:02:02.512Z,1.10
2022-12-22T14:03:21.719Z,1.03
2022-12-22T14:04:33.281Z,0.87
2022-12-22T14:05:34.704Z,0.70
2022-12-22T14:06:38.075Z,1.20
2022-12-22T14:07:39.537Z,0.90
2022-12-22T14:08:41.639Z,1.10
2022-12-22T14:09:47.077Z,1.00
2022-12-22T14:10:48.736Z,1.23
2022-12-22T14:11:52.992Z,1.10
2022-12-22T14:12:54.651Z,0.90
2022-12-22T14:13:56.003Z,1.10
2022-12-22T14:14:58.461Z,1.10
2022-12-22T14:16:05.089Z,1.57
2022-12-22T14:17:16.653Z,1.37
2022-12-22T14:18:21.297Z,1.27
2022-12-22T14:19:23.622Z,1.10
2022-12-22T14:20:30.829Z,1.20
2022-12-22T14:21:32.207Z,1.40
2022-12-22T14:22:36.183Z,1.17
2022-12-22T14:23:41.897Z,1.10
2022-12-22T14:24:45.385Z,0.97
2022-12-22T14:25:47.235Z,0.80
2022-12-22T14:26:49.047Z,0.80
2022-12-22T14:27:52.844Z,0.97
2022-12-22T14:28:55.860Z,1.00
2022-12-22T14:29:58.934Z,0.97
2022-12-22T14:31:00.875Z,1.03
2022-12-22T14:32:02.837Z,0.97
2022-12-22T14:33:15.150Z,0.93
2022-12-22T14:34:24.262Z,1.47
2022-12-22T14:35:27.425Z,1.10
2022-12-22T14:36:40.588Z,1.13
2022-12-22T14:37:42.365Z,1.10
2022-12-22T14:38:45.586Z,1.10
2022-12-22T14:39:54.799Z,1.20
2022-12-22T14:40:57.760Z,1.30
2022-12-22T14:42:03.268Z,1.20
2022-12-22T14:43:24.719Z,1.47
2022-12-22T14:44:27.912Z,1.10
2022-12-22T14:45:29.297Z,1.10
2022-12-22T14:46:35.203Z,1.30
2022-12-22T14:47:40.282Z,1.30
2022-12-22T14:48:45.606Z,1.40
2022-12-22T14:49:46.909Z,1.10
2022-12-22T14:50:49.438Z,1.33
2022-12-22T14:52:00.739Z,1.80
2022-12-22T14:53:04.977Z,1.30
2022-12-22T14:54:06.735Z,1.10
2022-12-22T14:55:21.048Z,1.00
2022-12-22T14:56:22.722Z,1.10
2022-12-22T14:57:32.709Z,0.80
2022-12-22T14:58:35.186Z,1.00
2022-12-22T14:59:36.558Z,1.10
2022-12-22T15:00:39.599Z,1.00
2022-12-22T15:01:40.965Z,1.40
2022-12-22T15:02:49.058Z,1.10
2022-12-22T15:04:09.527Z,0.90
2022-12-22T15:05:14.976Z,1.60
2022-12-22T15:06:24.343Z,1.67
2022-12-22T15:08:03.051Z,1.53
2022-12-22T15:08:47.086Z,1.87
2022-12-22T15:10:14.692Z,1.70
2022-12-22T15:11:11.096Z,1.87
2022-12-22T15:12:14.674Z,2.07